createdAt,value
2019-05-23T00:01:35.496Z,2.80
2019-05-23T00:03:52.653Z,2.23
2019-05-23T00:06:06.623Z,2.40
2019-05-23T00:08:13.720Z,2.80
2019-05-23T00:10:25.152Z,3.50
2019-05-23T00:12:47.110Z,3.30
2019-05-23T00:14:55.395Z,3.20
2019-05-23T00:17:01.919Z,2.67
2019-05-23T00:19:06.436Z,2.90
2019-05-23T00:21:10.248Z,3.43
2019-05-23T00:23:16.743Z,2.93
2019-05-23T00:25:22.217Z,2.73
2019-05-23T00:27:26.256Z,2.80
2019-05-23T00:29:31.297Z,3.37
2019-05-23T00:31:45.183Z,3.40
2019-05-23T00:33:50.461Z,3.17
2019-05-23T00:35:54.977Z,3.10
2019-05-23T00:37:58.917Z,2.97
2019-05-23T00:40:04.618Z,2.77
2019-05-23T00:42:10.154Z,3.00
2019-05-23T00:44:14.047Z,3.13
2019-05-23T00:46:18.983Z,3.33
2019-05-23T00:48:24.931Z,3.20
2019-05-23T00:50:29.728Z,3.93
2019-05-23T00:52:33.857Z,4.47
2019-05-23T00:54:40.190Z,4.07
2019-05-23T00:56:44.397Z,3.53
2019-05-23T00:58:48.762Z,3.60
2019-05-23T01:00:54.058Z,3.40
2019-05-23T01:02:58.507Z,3.30
2019-05-23T01:05:02.722Z,3.77
2019-05-23T01:07:07.975Z,3.30
2019-05-23T01:09:13.417Z,3.97
2019-05-23T01:11:17.291Z,3.87
2019-05-23T01:13:23.327Z,4.50
2019-05-23T01:15:28.795Z,3.60
2019-05-23T01:17:35.999Z,3.53
2019-05-23T01:19:40.694Z,3.93
2019-05-23T01:21:59.355Z,4.00
2019-05-23T01:24:11.635Z,3.93
2019-05-23T01:26:15.527Z,3.60
2019-05-23T01:28:19.457Z,3.90
2019-05-23T01:30:27.907Z,4.20
2019-05-23T01:32:38.945Z,4.17
2019-05-23T01:34:43.433Z,4.00
2019-05-23T01:36:48.298Z,4.97
2019-05-23T01:38:52.789Z,4.13
2019-05-23T01:40:59.445Z,4.13
2019-05-23T01:43:07.451Z,3.80
2019-05-23T01:45:12.191Z,3.47
2019-05-23T01:47:16.925Z,3.73
2019-05-23T01:49:20.939Z,4.03
2019-05-23T01:51:25.017Z,3.87
2019-05-23T01:53:29.754Z,4.50
2019-05-23T01:55:33.724Z,3.63
2019-05-23T01:57:39.043Z,4.47
2019-05-23T01:59:42.930Z,3.73
2019-05-23T02:01:46.949Z,3.60
2019-05-23T02:03:51.058Z,4.27
2019-05-23T02:05:55.486Z,4.00
2019-05-23T02:08:00.041Z,3.90
2019-05-23T02:10:04.324Z,4.03
2019-05-23T02:12:11.085Z,3.87
2019-05-23T02:14:15.276Z,4.10
2019-05-23T02:16:19.467Z,4.33
2019-05-23T02:18:24.158Z,4.23
2019-05-23T02:20:28.705Z,5.97
2019-05-23T02:22:33.219Z,4.90
2019-05-23T02:24:38.028Z,4.87
2019-05-23T02:26:41.961Z,4.90
2019-05-23T02:28:46.294Z,4.17
2019-05-23T02:30:50.492Z,4.80
2019-05-23T02:32:56.398Z,4.20
2019-05-23T02:35:00.220Z,4.87
2019-05-23T02:37:05.800Z,5.27
2019-05-23T02:39:21.585Z,4.87
2019-05-23T02:41:49.497Z,4.33
2019-05-23T02:43:58.706Z,4.47
2019-05-23T02:46:07.492Z,4.93
2019-05-23T02:48:12.231Z,4.70
2019-05-23T02:50:26.241Z,5.40
2019-05-23T02:52:38.841Z,4.90
2019-05-23T02:54:42.865Z,5.23
2019-05-23T02:56:47.663Z,6.20
2019-05-23T02:59:33.506Z,5.30
2019-05-23T03:02:03.322Z,5.53
2019-05-23T03:04:12.568Z,4.73
2019-05-23T03:06:19.396Z,5.90
2019-05-23T03:08:24.374Z,5.23
2019-05-23T03:10:32.753Z,4.90
2019-05-23T03:12:38.575Z,4.93
2019-05-23T03:14:45.622Z,4.60
2019-05-23T03:16:52.065Z,4.20
2019-05-23T03:19:01.779Z,4.60
2019-05-23T03:21:06.231Z,4.73
2019-05-23T03:23:13.780Z,5.30
2019-05-23T03:25:49.144Z,4.43
2019-05-23T03:27:53.993Z,5.50
2019-05-23T03:30:00.631Z,4.80
2019-05-23T03:32:21.941Z,4.43
2019-05-23T03:34:28.757Z,5.70
2019-05-23T03:36:33.384Z,5.03
2019-05-23T03:38:37.943Z,5.03
2019-05-23T03:40:42.285Z,6.40
2019-05-23T03:42:46.358Z,6.10
2019-05-23T03:44:51.300Z,6.90
2019-05-23T03:46:57.100Z,6.80
2019-05-23T03:49:01.988Z,6.73
2019-05-23T03:51:09.326Z,7.37
2019-05-23T03:53:13.545Z,7.30
2019-05-23T03:55:18.626Z,8.33
2019-05-23T03:57:25.800Z,6.63
2019-05-23T03:59:31.327Z,6.80
2019-05-23T04:01:47.583Z,7.60
2019-05-23T04:03:44.755Z,5.77
2019-05-23T04:05:49.060Z,6.30
2019-05-23T04:07:53.816Z,5.50
2019-05-23T04:09:58.228Z,5.40
2019-05-23T04:12:02.296Z,4.83
2019-05-23T04:14:07.154Z,5.47
2019-05-23T04:16:11.291Z,6.10
2019-05-23T04:18:15.306Z,5.90
2019-05-23T04:20:19.149Z,6.23
2019-05-23T04:22:23.646Z,5.90
2019-05-23T04:24:27.397Z,5.30
2019-05-23T04:26:31.540Z,5.37
2019-05-23T04:28:35.328Z,4.80
2019-05-23T04:30:39.125Z,4.30
2019-05-23T04:32:43.284Z,4.43
2019-05-23T04:34:47.292Z,4.40
2019-05-23T04:36:51.534Z,4.43
2019-05-23T04:38:55.429Z,5.10
2019-05-23T04:41:00.764Z,4.73
2019-05-23T04:43:04.782Z,5.37
2019-05-23T04:45:09.452Z,5.20
2019-05-23T04:47:14.011Z,4.77
2019-05-23T04:49:17.827Z,4.20
2019-05-23T04:51:23.777Z,4.70
2019-05-23T04:53:28.891Z,4.47
2019-05-23T04:55:34.181Z,3.90
2019-05-23T04:57:38.308Z,3.97
2019-05-23T04:59:42.292Z,4.07
2019-05-23T05:01:46.974Z,3.70
2019-05-23T05:03:51.963Z,4.17
2019-05-23T05:05:55.993Z,4.10
2019-05-23T05:07:59.850Z,4.17
2019-05-23T05:10:04.101Z,4.13
2019-05-23T05:12:09.913Z,4.50
2019-05-23T05:14:14.154Z,4.50
2019-05-23T05:16:18.809Z,4.23
2019-05-23T05:18:24.268Z,4.50
2019-05-23T05:20:28.601Z,4.47
2019-05-23T05:22:32.854Z,4.23
2019-05-23T05:24:40.131Z,4.20
2019-05-23T05:26:42.345Z,4.50
2019-05-23T05:28:46.714Z,4.40
2019-05-23T05:30:50.838Z,4.17
2019-05-23T05:32:54.875Z,5.03
2019-05-23T05:34:58.666Z,4.40
2019-05-23T05:37:02.685Z,4.53
2019-05-23T05:39:07.841Z,4.90
2019-05-23T05:41:11.545Z,4.20
2019-05-23T05:43:15.995Z,4.20
2019-05-23T05:45:20.228Z,4.27
2019-05-23T05:47:24.327Z,4.70
2019-05-23T05:49:28.681Z,4.83
2019-05-23T05:51:32.596Z,5.03
2019-05-23T05:53:36.701Z,5.23
2019-05-23T05:55:40.544Z,4.73
2019-05-23T05:57:44.339Z,5.07
2019-05-23T05:59:48.246Z,5.67
2019-05-23T06:01:52.898Z,5.97
2019-05-23T06:03:56.997Z,5.40
2019-05-23T06:06:31.909Z,5.67
2019-05-23T06:08:38.170Z,5.27
2019-05-23T06:10:43.168Z,5.00
2019-05-23T06:12:48.119Z,5.87
2019-05-23T06:14:51.949Z,6.23
2019-05-23T06:16:56.585Z,6.60
2019-05-23T06:19:00.553Z,5.67
2019-05-23T06:21:04.898Z,6.10
2019-05-23T06:23:11.851Z,6.07
2019-05-23T06:25:16.053Z,6.47
2019-05-23T06:27:22.059Z,6.53
2019-05-23T06:29:25.829Z,6.60
2019-05-23T06:31:31.395Z,6.17
2019-05-23T06:33:35.470Z,5.93
2019-05-23T06:35:39.465Z,6.23
2019-05-23T06:37:43.312Z,6.57
2019-05-23T06:39:47.355Z,6.33
2019-05-23T06:41:53.264Z,7.47
2019-05-23T06:43:57.030Z,7.33
2019-05-23T06:46:01.396Z,6.47
2019-05-23T06:48:05.901Z,6.40
2019-05-23T06:50:13.418Z,7.07
2019-05-23T06:52:17.265Z,7.60
2019-05-23T06:54:21.049Z,7.50
2019-05-23T06:56:25.331Z,6.60
2019-05-23T06:58:29.998Z,7.13
2019-05-23T07:00:33.995Z,6.37
2019-05-23T07:02:40.022Z,6.97
2019-05-23T21:36:39.691Z,4.00
2019-05-23T23:57:13.995Z,5.43
2019-05-23T23:59:17.068Z,5.80
